sensor_id;sensor_type;location;lat;lon;timestamp;P1;durP1;ratioP1;P2;durP2;ratioP2
55368;SDS011;41247;49.736;8.752;2022-09-27T00:00:39;7.57;;;2.10;;
55368;SDS011;41247;49.736;8.752;2022-09-27T00:04:20;2.00;;;1.80;;
55368;SDS011;41247;49.736;8.752;2022-09-27T00:08:00;5.15;;;1.60;;
55368;SDS011;41247;49.736;8.752;2022-09-27T00:11:41;4.38;;;1.67;;
55368;SDS011;41247;49.736;8.752;2022-09-27T00:15:22;1.80;;;1.33;;
55368;SDS011;41247;49.736;8.752;2022-09-27T00:19:04;2.05;;;1.40;;
55368;SDS011;41247;49.736;8.752;2022-09-27T00:22:48;5.78;;;1.90;;
55368;SDS011;41247;49.736;8.752;2022-09-27T00:26:29;3.40;;;1.38;;
55368;SDS011;41247;49.736;8.752;2022-09-27T00:30:10;10.80;;;2.38;;
55368;SDS011;41247;49.736;8.752;2022-09-27T00:33:51;7.05;;;2.30;;
55368;SDS011;41247;49.736;8.752;2022-09-27T00:37:32;6.47;;;1.92;;
55368;SDS011;41247;49.736;8.752;2022-09-27T00:41:20;5.30;;;2.45;;
55368;SDS011;41247;49.736;8.752;2022-09-27T00:45:13;9.73;;;4.45;;
55368;SDS011;41247;49.736;8.752;2022-09-27T00:48:58;9.93;;;4.80;;
55368;SDS011;41247;49.736;8.752;2022-09-27T00:53:16;7.63;;;4.90;;
55368;SDS011;41247;49.736;8.752;2022-09-27T00:57:07;9.70;;;6.85;;
55368;SDS011;41247;49.736;8.752;2022-09-27T01:00:50;9.75;;;6.97;;
55368;SDS011;41247;49.736;8.752;2022-09-27T01:04:34;12.98;;;7.10;;
55368;SDS011;41247;49.736;8.752;2022-09-27T01:08:17;9.80;;;6.43;;
55368;SDS011;41247;49.736;8.752;2022-09-27T01:16:14;12.50;;;6.47;;
55368;SDS011;41247;49.736;8.752;2022-09-27T01:24:20;16.30;;;7.30;;
55368;SDS011;41247;49.736;8.752;2022-09-27T01:28:27;15.32;;;8.70;;
55368;SDS011;41247;49.736;8.752;2022-09-27T01:32:33;25.02;;;10.80;;
55368;SDS011;41247;49.736;8.752;2022-09-27T01:40:35;18.77;;;8.13;;
55368;SDS011;41247;49.736;8.752;2022-09-27T01:44:42;24.80;;;9.45;;
55368;SDS011;41247;49.736;8.752;2022-09-27T01:48:34;21.73;;;9.85;;
55368;SDS011;41247;49.736;8.752;2022-09-27T01:52:22;17.02;;;8.13;;
55368;SDS011;41247;49.736;8.752;2022-09-27T01:56:14;18.45;;;7.95;;
55368;SDS011;41247;49.736;8.752;2022-09-27T02:00:03;26.13;;;6.70;;
55368;SDS011;41247;49.736;8.752;2022-09-27T02:03:49;17.48;;;6.05;;
55368;SDS011;41247;49.736;8.752;2022-09-27T02:07:37;14.85;;;6.75;;
55368;SDS011;41247;49.736;8.752;2022-09-27T02:11:25;18.85;;;9.60;;
55368;SDS011;41247;49.736;8.752;2022-09-27T02:15:08;19.85;;;7.60;;
55368;SDS011;41247;49.736;8.752;2022-09-27T02:18:57;18.88;;;7.72;;
55368;SDS011;41247;49.736;8.752;2022-09-27T02:23:12;24.48;;;10.48;;
55368;SDS011;41247;49.736;8.752;2022-09-27T02:27:11;28.05;;;10.82;;
55368;SDS011;41247;49.736;8.752;2022-09-27T02:31:17;29.38;;;10.73;;
55368;SDS011;41247;49.736;8.752;2022-09-27T02:34:59;25.73;;;9.15;;
55368;SDS011;41247;49.736;8.752;2022-09-27T02:38:46;37.50;;;11.55;;
55368;SDS011;41247;49.736;8.752;2022-09-27T02:42:27;28.67;;;12.55;;
55368;SDS011;41247;49.736;8.752;2022-09-27T02:46:15;51.70;;;12.82;;
55368;SDS011;41247;49.736;8.752;2022-09-27T02:50:17;18.77;;;11.18;;
55368;SDS011;41247;49.736;8.752;2022-09-27T02:58:28;146.88;;;17.60;;
55368;SDS011;41247;49.736;8.752;2022-09-27T03:06:32;445.05;;;26.75;;
55368;SDS011;41247;49.736;8.752;2022-09-27T03:10:17;1292.38;;;54.10;;
55368;SDS011;41247;49.736;8.752;2022-09-27T03:14:01;27.52;;;14.10;;
55368;SDS011;41247;49.736;8.752;2022-09-27T03:17:42;217.38;;;21.35;;
55368;SDS011;41247;49.736;8.752;2022-09-27T03:21:22;16.88;;;9.05;;
55368;SDS011;41247;49.736;8.752;2022-09-27T03:25:04;20.65;;;9.05;;
55368;SDS011;41247;49.736;8.752;2022-09-27T03:28:45;15.98;;;7.55;;
55368;SDS011;41247;49.736;8.752;2022-09-27T03:32:25;12.80;;;7.38;;
55368;SDS011;41247;49.736;8.752;2022-09-27T03:36:06;15.38;;;7.97;;
55368;SDS011;41247;49.736;8.752;2022-09-27T03:39:47;14.35;;;7.68;;
55368;SDS011;41247;49.736;8.752;2022-09-27T03:43:27;10.85;;;6.00;;
55368;SDS011;41247;49.736;8.752;2022-09-27T03:47:08;10.60;;;5.28;;
55368;SDS011;41247;49.736;8.752;2022-09-27T03:50:50;10.27;;;5.15;;
55368;SDS011;41247;49.736;8.752;2022-09-27T03:54:30;8.95;;;3.85;;
55368;SDS011;41247;49.736;8.752;2022-09-27T03:58:11;6.95;;;3.30;;
55368;SDS011;41247;49.736;8.752;2022-09-27T04:01:51;7.80;;;2.88;;
55368;SDS011;41247;49.736;8.752;2022-09-27T04:05:32;6.90;;;2.97;;
55368;SDS011;41247;49.736;8.752;2022-09-27T04:09:13;7.47;;;2.67;;
55368;SDS011;41247;49.736;8.752;2022-09-27T04:12:53;4.07;;;2.25;;
55368;SDS011;41247;49.736;8.752;2022-09-27T04:16:34;6.75;;;2.28;;
55368;SDS011;41247;49.736;8.752;2022-09-27T04:20:14;5.28;;;1.85;;
55368;SDS011;41247;49.736;8.752;2022-09-27T04:23:55;4.78;;;1.80;;
55368;SDS011;41247;49.736;8.752;2022-09-27T04:27:36;2.85;;;1.70;;
55368;SDS011;41247;49.736;8.752;2022-09-27T04:31:17;4.75;;;1.48;;
55368;SDS011;41247;49.736;8.752;2022-09-27T04:34:58;3.47;;;1.80;;
55368;SDS011;41247;49.736;8.752;2022-09-27T04:38:39;2.83;;;1.70;;
55368;SDS011;41247;49.736;8.752;2022-09-27T04:42:20;2.15;;;1.63;;
55368;SDS011;41247;49.736;8.752;2022-09-27T04:46:00;3.53;;;1.50;;
55368;SDS011;41247;49.736;8.752;2022-09-27T04:49:41;5.97;;;1.92;;
55368;SDS011;41247;49.736;8.752;2022-09-27T04:53:21;4.60;;;1.65;;
55368;SDS011;41247;49.736;8.752;2022-09-27T04:57:02;3.40;;;1.65;;
55368;SDS011;41247;49.736;8.752;2022-09-27T05:00:43;1.95;;;1.50;;
55368;SDS011;41247;49.736;8.752;2022-09-27T05:04:23;6.05;;;1.65;;
55368;SDS011;41247;49.736;8.752;2022-09-27T05:08:04;2.58;;;1.48;;
55368;SDS011;41247;49.736;8.752;2022-09-27T05:11:45;3.65;;;1.60;;
55368;SDS011;41247;49.736;8.752;2022-09-27T05:15:25;2.72;;;1.55;;
55368;SDS011;41247;49.736;8.752;2022-09-27T05:36:40;2.28;;;1.60;;
55368;SDS011;41247;49.736;8.752;2022-09-27T05:40:36;9.77;;;2.15;;
55368;SDS011;41247;49.736;8.752;2022-09-27T05:44:16;3.88;;;1.70;;
55368;SDS011;41247;49.736;8.752;2022-09-27T05:47:57;3.83;;;1.92;;
55368;SDS011;41247;49.736;8.752;2022-09-27T05:51:38;5.07;;;2.40;;
55368;SDS011;41247;49.736;8.752;2022-09-27T05:55:19;4.95;;;2.30;;
55368;SDS011;41247;49.736;8.752;2022-09-27T05:59:00;5.80;;;2.45;;
55368;SDS011;41247;49.736;8.752;2022-09-27T06:02:41;6.72;;;2.92;;
55368;SDS011;41247;49.736;8.752;2022-09-27T06:06:34;4.32;;;2.33;;
55368;SDS011;41247;49.736;8.752;2022-09-27T06:10:17;8.23;;;2.70;;
55368;SDS011;41247;49.736;8.752;2022-09-27T06:13:58;5.50;;;2.72;;
55368;SDS011;41247;49.736;8.752;2022-09-27T06:17:39;7.82;;;2.75;;
55368;SDS011;41247;49.736;8.752;2022-09-27T06:21:22;5.00;;;2.50;;
55368;SDS011;41247;49.736;8.752;2022-09-27T06:25:03;7.53;;;2.40;;
55368;SDS011;41247;49.736;8.752;2022-09-27T06:28:44;6.22;;;3.28;;
55368;SDS011;41247;49.736;8.752;2022-09-27T06:32:25;6.60;;;3.33;;
55368;SDS011;41247;49.736;8.752;2022-09-27T06:36:06;8.20;;;2.95;;
55368;SDS011;41247;49.736;8.752;2022-09-27T06:39:47;6.80;;;2.90;;
55368;SDS011;41247;49.736;8.752;2022-09-27T06:43:32;6.43;;;2.50;;
55368;SDS011;41247;49.736;8.752;2022-09-27T06:47:12;6.93;;;2.90;;
55368;SDS011;41247;49.736;8.752;2022-09-27T06:50:53;5.63;;;2.58;;
55368;SDS011;41247;49.736;8.752;2022-09-27T06:54:34;3.63;;;2.00;;
55368;SDS011;41247;49.736;8.752;2022-09-27T06:58:14;3.55;;;1.90;;
55368;SDS011;41247;49.736;8.752;2022-09-27T07:01:55;2.20;;;1.58;;
55368;SDS011;41247;49.736;8.752;2022-09-27T07:05:36;4.45;;;1.40;;
55368;SDS011;41247;49.736;8.752;2022-09-27T07:09:17;2.47;;;1.20;;
55368;SDS011;41247;49.736;8.752;2022-09-27T07:16:46;3.80;;;1.25;;
55368;SDS011;41247;49.736;8.752;2022-09-27T07:20:27;4.32;;;1.00;;
55368;SDS011;41247;49.736;8.752;2022-09-27T07:24:08;2.80;;;1.00;;
55368;SDS011;41247;49.736;8.752;2022-09-27T07:27:48;3.72;;;1.17;;
55368;SDS011;41247;49.736;8.752;2022-09-27T07:31:29;2.55;;;1.15;;
55368;SDS011;41247;49.736;8.752;2022-09-27T07:35:10;4.13;;;0.93;;
55368;SDS011;41247;49.736;8.752;2022-09-27T07:38:52;2.42;;;0.80;;
55368;SDS011;41247;49.736;8.752;2022-09-27T07:42:33;2.03;;;0.93;;
55368;SDS011;41247;49.736;8.752;2022-09-27T07:46:15;3.85;;;1.08;;
55368;SDS011;41247;49.736;8.752;2022-09-27T07:49:55;2.05;;;1.00;;
55368;SDS011;41247;49.736;8.752;2022-09-27T07:53:36;1.52;;;0.82;;
55368;SDS011;41247;49.736;8.752;2022-09-27T07:57:20;2.40;;;0.80;;
55368;SDS011;41247;49.736;8.752;2022-09-27T08:01:01;1.90;;;0.75;;
55368;SDS011;41247;49.736;8.752;2022-09-27T08:04:42;2.58;;;0.70;;
55368;SDS011;41247;49.736;8.752;2022-09-27T08:08:23;2.25;;;0.80;;
55368;SDS011;41247;49.736;8.752;2022-09-27T08:12:03;1.42;;;1.02;;
55368;SDS011;41247;49.736;8.752;2022-09-27T08:15:44;5.60;;;1.15;;
55368;SDS011;41247;49.736;8.752;2022-09-27T08:19:25;3.17;;;0.80;;
55368;SDS011;41247;49.736;8.752;2022-09-27T08:23:05;2.95;;;0.98;;
55368;SDS011;41247;49.736;8.752;2022-09-27T08:26:46;1.15;;;0.60;;
55368;SDS011;41247;49.736;8.752;2022-09-27T08:30:29;1.73;;;0.70;;
55368;SDS011;41247;49.736;8.752;2022-09-27T08:34:09;1.20;;;0.80;;
55368;SDS011;41247;49.736;8.752;2022-09-27T08:37:57;2.25;;;0.85;;
55368;SDS011;41247;49.736;8.752;2022-09-27T08:45:54;1.75;;;0.85;;
55368;SDS011;41247;49.736;8.752;2022-09-27T08:54:24;2.60;;;1.20;;
55368;SDS011;41247;49.736;8.752;2022-09-27T08:58:12;3.63;;;1.05;;
55368;SDS011;41247;49.736;8.752;2022-09-27T09:01:59;2.13;;;1.05;;
55368;SDS011;41247;49.736;8.752;2022-09-27T09:05:40;1.90;;;0.88;;
55368;SDS011;41247;49.736;8.752;2022-09-27T09:25:49;2.13;;;1.25;;
55368;SDS011;41247;49.736;8.752;2022-09-27T09:34:16;3.13;;;1.48;;
55368;SDS011;41247;49.736;8.752;2022-09-27T09:38:23;2.45;;;1.52;;
55368;SDS011;41247;49.736;8.752;2022-09-27T09:42:21;4.93;;;1.30;;
55368;SDS011;41247;49.736;8.752;2022-09-27T10:02:33;1.83;;;0.70;;
55368;SDS011;41247;49.736;8.752;2022-09-27T10:06:17;2.25;;;0.50;;
55368;SDS011;41247;49.736;8.752;2022-09-27T10:09:58;1.65;;;0.82;;
55368;SDS011;41247;49.736;8.752;2022-09-27T10:13:41;4.25;;;0.65;;
55368;SDS011;41247;49.736;8.752;2022-09-27T10:17:23;4.13;;;0.85;;
55368;SDS011;41247;49.736;8.752;2022-09-27T10:21:11;2.72;;;1.10;;
55368;SDS011;41247;49.736;8.752;2022-09-27T10:25:00;2.45;;;0.80;;
55368;SDS011;41247;49.736;8.752;2022-09-27T10:28:45;8.05;;;1.00;;
55368;SDS011;41247;49.736;8.752;2022-09-27T10:32:27;2.03;;;0.80;;
55368;SDS011;41247;49.736;8.752;2022-09-27T10:36:23;3.17;;;1.42;;
55368;SDS011;41247;49.736;8.752;2022-09-27T10:40:24;1.73;;;1.20;;
55368;SDS011;41247;49.736;8.752;2022-09-27T10:47:54;5.75;;;2.20;;
55368;SDS011;41247;49.736;8.752;2022-09-27T10:51:37;2.35;;;1.40;;
55368;SDS011;41247;49.736;8.752;2022-09-27T10:55:20;4.97;;;2.05;;
55368;SDS011;41247;49.736;8.752;2022-09-27T10:59:04;2.88;;;1.80;;
55368;SDS011;41247;49.736;8.752;2022-09-27T11:02:49;4.35;;;1.98;;
55368;SDS011;41247;49.736;8.752;2022-09-27T11:06:33;5.45;;;1.80;;
55368;SDS011;41247;49.736;8.752;2022-09-27T11:10:19;2.85;;;1.40;;
55368;SDS011;41247;49.736;8.752;2022-09-27T11:14:16;4.22;;;1.42;;
55368;SDS011;41247;49.736;8.752;2022-09-27T11:18:09;3.78;;;1.50;;
55368;SDS011;41247;49.736;8.752;2022-09-27T11:30:17;3.90;;;1.70;;
55368;SDS011;41247;49.736;8.752;2022-09-27T11:38:14;5.47;;;2.20;;
55368;SDS011;41247;49.736;8.752;2022-09-27T11:42:09;4.93;;;1.95;;
55368;SDS011;41247;49.736;8.752;2022-09-27T12:12:03;5.55;;;2.40;;
55368;SDS011;41247;49.736;8.752;2022-09-27T12:15:52;6.28;;;1.92;;
55368;SDS011;41247;49.736;8.752;2022-09-27T12:19:36;4.70;;;1.10;;
55368;SDS011;41247;49.736;8.752;2022-09-27T12:23:25;2.60;;;0.77;;
55368;SDS011;41247;49.736;8.752;2022-09-27T12:27:20;3.35;;;0.90;;
55368;SDS011;41247;49.736;8.752;2022-09-27T12:31:16;2.28;;;1.05;;
55368;SDS011;41247;49.736;8.752;2022-09-27T12:35:07;0.77;;;0.43;;
55368;SDS011;41247;49.736;8.752;2022-09-27T12:39:00;1.63;;;0.40;;
55368;SDS011;41247;49.736;8.752;2022-09-27T12:42:49;2.63;;;0.60;;
55368;SDS011;41247;49.736;8.752;2022-09-27T12:51:04;2.05;;;1.23;;
55368;SDS011;41247;49.736;8.752;2022-09-27T12:55:04;0.68;;;0.50;;
55368;SDS011;41247;49.736;8.752;2022-09-27T13:07:34;3.22;;;0.63;;
55368;SDS011;41247;49.736;8.752;2022-09-27T13:15:53;4.65;;;1.10;;
55368;SDS011;41247;49.736;8.752;2022-09-27T13:19:39;1.33;;;0.88;;
55368;SDS011;41247;49.736;8.752;2022-09-27T13:27:26;2.35;;;1.00;;
55368;SDS011;41247;49.736;8.752;2022-09-27T13:31:09;5.13;;;1.67;;
55368;SDS011;41247;49.736;8.752;2022-09-27T13:34:51;2.38;;;1.08;;
55368;SDS011;41247;49.736;8.752;2022-09-27T13:38:35;6.60;;;1.52;;
55368;SDS011;41247;49.736;8.752;2022-09-27T13:42:24;7.43;;;1.60;;
55368;SDS011;41247;49.736;8.752;2022-09-27T13:46:18;2.13;;;0.82;;
55368;SDS011;41247;49.736;8.752;2022-09-27T13:50:03;4.30;;;1.25;;
55368;SDS011;41247;49.736;8.752;2022-09-27T13:54:51;3.72;;;1.10;;
55368;SDS011;41247;49.736;8.752;2022-09-27T13:58:28;2.92;;;1.08;;
55368;SDS011;41247;49.736;8.752;2022-09-27T14:06:06;2.65;;;1.10;;
55368;SDS011;41247;49.736;8.752;2022-09-27T14:09:48;3.08;;;1.65;;
55368;SDS011;41247;49.736;8.752;2022-09-27T14:13:33;1.50;;;1.02;;
55368;SDS011;41247;49.736;8.752;2022-09-27T14:17:14;3.33;;;1.20;;
55368;SDS011;41247;49.736;8.752;2022-09-27T14:21:06;1.90;;;1.20;;
55368;SDS011;41247;49.736;8.752;2022-09-27T14:25:00;4.63;;;1.38;;
55368;SDS011;41247;49.736;8.752;2022-09-27T14:28:41;4.30;;;1.30;;
55368;SDS011;41247;49.736;8.752;2022-09-27T14:32:25;5.55;;;1.40;;
55368;SDS011;41247;49.736;8.752;2022-09-27T14:36:22;4.15;;;1.55;;
55368;SDS011;41247;49.736;8.752;2022-09-27T14:40:04;3.85;;;1.80;;
55368;SDS011;41247;49.736;8.752;2022-09-27T14:43:56;4.00;;;2.20;;
55368;SDS011;41247;49.736;8.752;2022-09-27T14:47:43;6.05;;;2.10;;
55368;SDS011;41247;49.736;8.752;2022-09-27T14:51:29;2.17;;;1.38;;
55368;SDS011;41247;49.736;8.752;2022-09-27T14:55:18;4.18;;;1.30;;
55368;SDS011;41247;49.736;8.752;2022-09-27T14:59:02;4.25;;;1.70;;
55368;SDS011;41247;49.736;8.752;2022-09-27T15:02:50;5.97;;;1.30;;
55368;SDS011;41247;49.736;8.752;2022-09-27T15:06:34;2.85;;;1.08;;
55368;SDS011;41247;49.736;8.752;2022-09-27T15:10:17;1.85;;;0.90;;
55368;SDS011;41247;49.736;8.752;2022-09-27T15:14:00;2.42;;;0.93;;
55368;SDS011;41247;49.736;8.752;2022-09-27T15:17:43;1.43;;;0.93;;
55368;SDS011;41247;49.736;8.752;2022-09-27T15:25:28;3.65;;;1.00;;
55368;SDS011;41247;49.736;8.752;2022-09-27T15:29:21;5.00;;;2.00;;
55368;SDS011;41247;49.736;8.752;2022-09-27T15:33:05;2.55;;;1.17;;
55368;SDS011;41247;49.736;8.752;2022-09-27T15:37:04;2.47;;;1.00;;
55368;SDS011;41247;49.736;8.752;2022-09-27T15:44:42;16.23;;;8.07;;
55368;SDS011;41247;49.736;8.752;2022-09-27T15:48:26;3.85;;;1.35;;
55368;SDS011;41247;49.736;8.752;2022-09-27T15:52:08;2.55;;;1.45;;
55368;SDS011;41247;49.736;8.752;2022-09-27T15:56:25;6.65;;;1.58;;
55368;SDS011;41247;49.736;8.752;2022-09-27T16:00:09;3.33;;;1.75;;
55368;SDS011;41247;49.736;8.752;2022-09-27T16:03:54;2.53;;;1.40;;
55368;SDS011;41247;49.736;8.752;2022-09-27T16:07:38;2.15;;;1.02;;
55368;SDS011;41247;49.736;8.752;2022-09-27T16:11:19;2.42;;;0.70;;
55368;SDS011;41247;49.736;8.752;2022-09-27T16:14:59;5.90;;;1.55;;
55368;SDS011;41247;49.736;8.752;2022-09-27T16:18:40;3.83;;;1.65;;
55368;SDS011;41247;49.736;8.752;2022-09-27T16:22:21;3.45;;;1.85;;
55368;SDS011;41247;49.736;8.752;2022-09-27T16:26:02;3.25;;;1.30;;
55368;SDS011;41247;49.736;8.752;2022-09-27T16:29:43;2.28;;;1.33;;
55368;SDS011;41247;49.736;8.752;2022-09-27T16:33:23;2.63;;;2.30;;
55368;SDS011;41247;49.736;8.752;2022-09-27T16:37:04;5.63;;;3.17;;
55368;SDS011;41247;49.736;8.752;2022-09-27T16:40:45;3.40;;;2.15;;
55368;SDS011;41247;49.736;8.752;2022-09-27T16:44:25;3.30;;;2.22;;
55368;SDS011;41247;49.736;8.752;2022-09-27T16:48:06;5.38;;;2.38;;
55368;SDS011;41247;49.736;8.752;2022-09-27T16:51:46;7.63;;;2.95;;
55368;SDS011;41247;49.736;8.752;2022-09-27T16:55:27;5.25;;;2.33;;
55368;SDS011;41247;49.736;8.752;2022-09-27T16:59:08;7.10;;;2.30;;
55368;SDS011;41247;49.736;8.752;2022-09-27T17:02:48;5.63;;;1.83;;
55368;SDS011;41247;49.736;8.752;2022-09-27T17:06:29;3.33;;;2.13;;
55368;SDS011;41247;49.736;8.752;2022-09-27T17:10:09;4.82;;;2.00;;
55368;SDS011;41247;49.736;8.752;2022-09-27T17:13:52;5.63;;;2.55;;
55368;SDS011;41247;49.736;8.752;2022-09-27T17:17:33;4.32;;;2.40;;
55368;SDS011;41247;49.736;8.752;2022-09-27T17:21:14;4.28;;;2.30;;
55368;SDS011;41247;49.736;8.752;2022-09-27T17:24:55;5.07;;;2.78;;
55368;SDS011;41247;49.736;8.752;2022-09-27T17:28:35;8.93;;;3.83;;
55368;SDS011;41247;49.736;8.752;2022-09-27T17:32:16;9.35;;;4.50;;
55368;SDS011;41247;49.736;8.752;2022-09-27T17:36:00;10.00;;;3.83;;
55368;SDS011;41247;49.736;8.752;2022-09-27T17:39:41;10.18;;;3.28;;
55368;SDS011;41247;49.736;8.752;2022-09-27T17:43:21;3.80;;;2.67;;
55368;SDS011;41247;49.736;8.752;2022-09-27T17:47:02;6.15;;;3.22;;
55368;SDS011;41247;49.736;8.752;2022-09-27T17:50:46;4.13;;;2.65;;
55368;SDS011;41247;49.736;8.752;2022-09-27T17:54:27;7.63;;;3.50;;
55368;SDS011;41247;49.736;8.752;2022-09-27T17:58:08;4.55;;;2.30;;
55368;SDS011;41247;49.736;8.752;2022-09-27T18:01:48;3.88;;;2.40;;
55368;SDS011;41247;49.736;8.752;2022-09-27T18:05:29;3.90;;;2.25;;
55368;SDS011;41247;49.736;8.752;2022-09-27T18:09:10;5.63;;;3.10;;
55368;SDS011;41247;49.736;8.752;2022-09-27T18:12:53;3.30;;;2.20;;
55368;SDS011;41247;49.736;8.752;2022-09-27T18:16:35;4.07;;;2.30;;
55368;SDS011;41247;49.736;8.752;2022-09-27T18:20:20;4.30;;;2.00;;
55368;SDS011;41247;49.736;8.752;2022-09-27T18:24:01;3.88;;;1.80;;
55368;SDS011;41247;49.736;8.752;2022-09-27T18:27:42;5.15;;;2.70;;
55368;SDS011;41247;49.736;8.752;2022-09-27T18:31:23;8.32;;;3.35;;
55368;SDS011;41247;49.736;8.752;2022-09-27T18:35:03;4.97;;;2.20;;
55368;SDS011;41247;49.736;8.752;2022-09-27T18:38:45;6.60;;;3.28;;
55368;SDS011;41247;49.736;8.752;2022-09-27T18:42:31;4.63;;;2.70;;
55368;SDS011;41247;49.736;8.752;2022-09-27T18:46:16;5.75;;;2.90;;
55368;SDS011;41247;49.736;8.752;2022-09-27T18:49:57;8.50;;;2.50;;
55368;SDS011;41247;49.736;8.752;2022-09-27T18:53:38;3.80;;;2.28;;
55368;SDS011;41247;49.736;8.752;2022-09-27T18:57:19;6.03;;;2.95;;
55368;SDS011;41247;49.736;8.752;2022-09-27T19:01:00;8.20;;;4.15;;
55368;SDS011;41247;49.736;8.752;2022-09-27T19:04:43;4.50;;;2.70;;
55368;SDS011;41247;49.736;8.752;2022-09-27T19:08:23;6.63;;;2.85;;
55368;SDS011;41247;49.736;8.752;2022-09-27T19:12:05;4.47;;;2.20;;
55368;SDS011;41247;49.736;8.752;2022-09-27T19:15:55;8.57;;;2.85;;
55368;SDS011;41247;49.736;8.752;2022-09-27T19:19:37;4.53;;;2.10;;
55368;SDS011;41247;49.736;8.752;2022-09-27T19:23:17;4.68;;;2.20;;
55368;SDS011;41247;49.736;8.752;2022-09-27T19:26:59;5.30;;;2.60;;
55368;SDS011;41247;49.736;8.752;2022-09-27T19:30:40;4.82;;;2.10;;
55368;SDS011;41247;49.736;8.752;2022-09-27T19:34:22;7.45;;;2.90;;
55368;SDS011;41247;49.736;8.752;2022-09-27T19:38:03;6.47;;;2.97;;
55368;SDS011;41247;49.736;8.752;2022-09-27T19:41:43;8.20;;;4.28;;
55368;SDS011;41247;49.736;8.752;2022-09-27T19:45:24;9.20;;;3.78;;
55368;SDS011;41247;49.736;8.752;2022-09-27T19:49:04;11.68;;;3.42;;
55368;SDS011;41247;49.736;8.752;2022-09-27T19:52:45;5.80;;;2.97;;
55368;SDS011;41247;49.736;8.752;2022-09-27T19:56:25;8.30;;;3.47;;
55368;SDS011;41247;49.736;8.752;2022-09-27T20:00:06;7.80;;;4.03;;
55368;SDS011;41247;49.736;8.752;2022-09-27T20:03:48;7.63;;;4.00;;
55368;SDS011;41247;49.736;8.752;2022-09-27T20:07:31;6.30;;;3.25;;
55368;SDS011;41247;49.736;8.752;2022-09-27T20:11:12;6.95;;;2.53;;
55368;SDS011;41247;49.736;8.752;2022-09-27T20:14:58;5.82;;;2.88;;
55368;SDS011;41247;49.736;8.752;2022-09-27T20:18:39;10.02;;;3.80;;
55368;SDS011;41247;49.736;8.752;2022-09-27T20:22:23;6.18;;;3.38;;
55368;SDS011;41247;49.736;8.752;2022-09-27T20:26:07;6.93;;;3.65;;
55368;SDS011;41247;49.736;8.752;2022-09-27T20:29:50;9.90;;;3.90;;
55368;SDS011;41247;49.736;8.752;2022-09-27T20:33:31;7.63;;;3.80;;
55368;SDS011;41247;49.736;8.752;2022-09-27T20:37:12;14.05;;;4.60;;
55368;SDS011;41247;49.736;8.752;2022-09-27T20:40:53;11.20;;;3.83;;
55368;SDS011;41247;49.736;8.752;2022-09-27T20:44:34;8.10;;;3.83;;
55368;SDS011;41247;49.736;8.752;2022-09-27T20:48:15;9.88;;;4.00;;
55368;SDS011;41247;49.736;8.752;2022-09-27T20:51:58;5.95;;;3.35;;
55368;SDS011;41247;49.736;8.752;2022-09-27T20:55:46;7.70;;;2.97;;
55368;SDS011;41247;49.736;8.752;2022-09-27T20:59:27;8.90;;;3.40;;
55368;SDS011;41247;49.736;8.752;2022-09-27T21:03:12;7.32;;;2.80;;
55368;SDS011;41247;49.736;8.752;2022-09-27T21:07:00;8.73;;;2.72;;
55368;SDS011;41247;49.736;8.752;2022-09-27T21:10:40;7.60;;;2.75;;
55368;SDS011;41247;49.736;8.752;2022-09-27T21:14:21;8.48;;;2.67;;
55368;SDS011;41247;49.736;8.752;2022-09-27T21:18:02;8.18;;;3.40;;
55368;SDS011;41247;49.736;8.752;2022-09-27T21:21:42;8.68;;;2.70;;
55368;SDS011;41247;49.736;8.752;2022-09-27T21:25:23;8.43;;;2.53;;
55368;SDS011;41247;49.736;8.752;2022-09-27T21:29:05;7.88;;;2.53;;
55368;SDS011;41247;49.736;8.752;2022-09-27T21:32:51;7.15;;;2.75;;
55368;SDS011;41247;49.736;8.752;2022-09-27T21:36:34;6.55;;;2.60;;
55368;SDS011;41247;49.736;8.752;2022-09-27T21:40:16;5.85;;;2.97;;
55368;SDS011;41247;49.736;8.752;2022-09-27T21:44:00;8.90;;;3.13;;
55368;SDS011;41247;49.736;8.752;2022-09-27T21:47:43;8.15;;;2.70;;
55368;SDS011;41247;49.736;8.752;2022-09-27T21:51:25;8.55;;;2.67;;
55368;SDS011;41247;49.736;8.752;2022-09-27T21:55:15;6.78;;;3.08;;
55368;SDS011;41247;49.736;8.752;2022-09-27T21:58:56;5.32;;;2.72;;
55368;SDS011;41247;49.736;8.752;2022-09-27T22:02:38;7.10;;;3.55;;
55368;SDS011;41247;49.736;8.752;2022-09-27T22:06:19;5.03;;;3.60;;
55368;SDS011;41247;49.736;8.752;2022-09-27T22:10:02;7.85;;;3.83;;
55368;SDS011;41247;49.736;8.752;2022-09-27T22:13:46;8.48;;;3.92;;
55368;SDS011;41247;49.736;8.752;2022-09-27T22:17:45;3.95;;;3.42;;
55368;SDS011;41247;49.736;8.752;2022-09-27T22:21:29;5.95;;;3.50;;
55368;SDS011;41247;49.736;8.752;2022-09-27T22:25:13;10.23;;;3.42;;
55368;SDS011;41247;49.736;8.752;2022-09-27T22:28:54;5.50;;;2.83;;
55368;SDS011;41247;49.736;8.752;2022-09-27T22:32:36;6.63;;;2.45;;
55368;SDS011;41247;49.736;8.752;2022-09-27T22:36:17;5.07;;;2.75;;
55368;SDS011;41247;49.736;8.752;2022-09-27T22:39:57;2.95;;;2.33;;
55368;SDS011;41247;49.736;8.752;2022-09-27T22:43:38;5.80;;;2.25;;
55368;SDS011;41247;49.736;8.752;2022-09-27T22:47:19;5.95;;;2.42;;
55368;SDS011;41247;49.736;8.752;2022-09-27T22:50:59;5.13;;;2.17;;
55368;SDS011;41247;49.736;8.752;2022-09-27T22:54:40;6.72;;;2.58;;
55368;SDS011;41247;49.736;8.752;2022-09-27T22:58:21;5.20;;;2.20;;
55368;SDS011;41247;49.736;8.752;2022-09-27T23:02:02;3.72;;;2.50;;
55368;SDS011;41247;49.736;8.752;2022-09-27T23:05:42;5.38;;;2.90;;
55368;SDS011;41247;49.736;8.752;2022-09-27T23:09:23;7.57;;;3.08;;
55368;SDS011;41247;49.736;8.752;2022-09-27T23:13:03;7.40;;;3.85;;
55368;SDS011;41247;49.736;8.752;2022-09-27T23:16:44;9.52;;;4.25;;
55368;SDS011;41247;49.736;8.752;2022-09-27T23:20:25;9.85;;;4.57;;
55368;SDS011;41247;49.736;8.752;2022-09-27T23:24:06;7.50;;;4.38;;
55368;SDS011;41247;49.736;8.752;2022-09-27T23:27:49;5.90;;;4.50;;
55368;SDS011;41247;49.736;8.752;2022-09-27T23:31:30;8.05;;;4.45;;
55368;SDS011;41247;49.736;8.752;2022-09-27T23:35:11;8.38;;;5.03;;
55368;SDS011;41247;49.736;8.752;2022-09-27T23:38:53;11.93;;;4.90;;
55368;SDS011;41247;49.736;8.752;2022-09-27T23:42:37;6.93;;;4.55;;
55368;SDS011;41247;49.736;8.752;2022-09-27T23:46:17;10.95;;;4.63;;
55368;SDS011;41247;49.736;8.752;2022-09-27T23:49:58;6.78;;;3.88;;
55368;SDS011;41247;49.736;8.752;2022-09-27T23:53:38;5.65;;;3.70;;
55368;SDS011;41247;49.736;8.752;2022-09-27T23:57:19;5.28;;;3.67;;
